sensor_id;sensor_type;location;lat;lon;timestamp;pressure;altitude;pressure_sealevel;temperature;humidity
73016;BME280;61893;50.074;14.440;2022-11-20T00:01:21;98156.84;;;-3.49;93.64
73016;BME280;61893;50.074;14.440;2022-11-20T00:03:48;98153.09;;;-3.43;92.84
73016;BME280;61893;50.074;14.440;2022-11-20T00:06:16;98157.84;;;-3.34;92.24
73016;BME280;61893;50.074;14.440;2022-11-20T00:08:46;98166.44;;;-3.32;92.01
73016;BME280;61893;50.074;14.440;2022-11-20T00:11:22;98155.88;;;-3.29;91.66
73016;BME280;61893;50.074;14.440;2022-11-20T00:13:51;98159.94;;;-3.23;91.36
73016;BME280;61893;50.074;14.440;2022-11-20T00:16:20;98156.72;;;-3.11;91.25
73016;BME280;61893;50.074;14.440;2022-11-20T00:18:46;98153.03;;;-3.07;90.75
73016;BME280;61893;50.074;14.440;2022-11-20T00:21:21;98161.81;;;-3.09;89.91
73016;BME280;61893;50.074;14.440;2022-11-20T00:23:47;98162.28;;;-3.19;90.14
73016;BME280;61893;50.074;14.440;2022-11-20T00:26:15;98162.44;;;-3.22;90.21
73016;BME280;61893;50.074;14.440;2022-11-20T00:28:43;98161.13;;;-3.30;90.38
73016;BME280;61893;50.074;14.440;2022-11-20T00:31:14;98156.63;;;-3.27;90.66
73016;BME280;61893;50.074;14.440;2022-11-20T00:33:47;98158.31;;;-3.26;90.84
73016;BME280;61893;50.074;14.440;2022-11-20T00:36:19;98158.47;;;-3.29;91.19
73016;BME280;61893;50.074;14.440;2022-11-20T00:38:45;98158.00;;;-3.20;90.96
73016;BME280;61893;50.074;14.440;2022-11-20T00:41:14;98156.47;;;-3.24;90.98
73016;BME280;61893;50.074;14.440;2022-11-20T00:43:40;98164.97;;;-3.20;90.75
73016;BME280;61893;50.074;14.440;2022-11-20T00:46:10;98161.50;;;-3.21;90.44
73016;BME280;61893;50.074;14.440;2022-11-20T00:48:44;98162.75;;;-3.10;90.40
73016;BME280;61893;50.074;14.440;2022-11-20T00:51:30;98153.31;;;-2.96;90.01
73016;BME280;61893;50.074;14.440;2022-11-20T00:53:57;98162.91;;;-2.96;89.52
73016;BME280;61893;50.074;14.440;2022-11-20T00:56:23;98163.75;;;-2.96;90.38
73016;BME280;61893;50.074;14.440;2022-11-20T00:58:49;98162.59;;;-2.90;90.09
73016;BME280;61893;50.074;14.440;2022-11-20T01:01:17;98167.25;;;-2.79;89.40
73016;BME280;61893;50.074;14.440;2022-11-20T01:03:45;98160.44;;;-2.82;89.28
73016;BME280;61893;50.074;14.440;2022-11-20T01:06:14;98161.13;;;-2.78;89.18
73016;BME280;61893;50.074;14.440;2022-11-20T01:08:41;98164.28;;;-2.72;88.76
73016;BME280;61893;50.074;14.440;2022-11-20T01:11:14;98163.56;;;-2.75;88.72
73016;BME280;61893;50.074;14.440;2022-11-20T01:13:41;98164.69;;;-2.63;88.83
73016;BME280;61893;50.074;14.440;2022-11-20T01:16:12;98161.66;;;-2.72;88.32
73016;BME280;61893;50.074;14.440;2022-11-20T01:18:41;98161.53;;;-2.86;88.72
73016;BME280;61893;50.074;14.440;2022-11-20T01:21:14;98171.22;;;-2.89;88.68
73016;BME280;61893;50.074;14.440;2022-11-20T01:23:42;98162.69;;;-2.91;89.12
73016;BME280;61893;50.074;14.440;2022-11-20T01:26:13;98161.44;;;-3.02;89.12
73016;BME280;61893;50.074;14.440;2022-11-20T01:28:40;98171.09;;;-3.04;89.34
73016;BME280;61893;50.074;14.440;2022-11-20T01:31:16;98170.56;;;-3.28;89.89
73016;BME280;61893;50.074;14.440;2022-11-20T01:33:43;98170.78;;;-3.32;90.84
73016;BME280;61893;50.074;14.440;2022-11-20T01:36:10;98160.22;;;-3.29;90.58
73016;BME280;61893;50.074;14.440;2022-11-20T01:38:36;98164.53;;;-3.11;90.38
73016;BME280;61893;50.074;14.440;2022-11-20T01:41:03;98158.31;;;-3.08;90.04
73016;BME280;61893;50.074;14.440;2022-11-20T01:43:29;98155.63;;;-3.24;90.25
73016;BME280;61893;50.074;14.440;2022-11-20T01:46:18;98153.66;;;-3.19;90.48
73016;BME280;61893;50.074;14.440;2022-11-20T01:48:49;98164.81;;;-3.34;90.75
73016;BME280;61893;50.074;14.440;2022-11-20T01:51:26;98155.78;;;-3.27;90.59
73016;BME280;61893;50.074;14.440;2022-11-20T01:53:55;98157.56;;;-3.10;90.44
73016;BME280;61893;50.074;14.440;2022-11-20T01:56:25;98146.75;;;-3.03;89.81
73016;BME280;61893;50.074;14.440;2022-11-20T01:58:54;98149.22;;;-3.00;89.62
73016;BME280;61893;50.074;14.440;2022-11-20T02:01:22;98150.41;;;-2.89;88.96
73016;BME280;61893;50.074;14.440;2022-11-20T02:03:49;98153.56;;;-2.83;89.18
73016;BME280;61893;50.074;14.440;2022-11-20T02:06:28;98142.28;;;-2.83;89.24
73016;BME280;61893;50.074;14.440;2022-11-20T02:08:57;98147.72;;;-2.70;88.66
73016;BME280;61893;50.074;14.440;2022-11-20T02:11:23;98136.94;;;-2.80;87.86
73016;BME280;61893;50.074;14.440;2022-11-20T02:13:50;98132.19;;;-2.89;88.98
73016;BME280;61893;50.074;14.440;2022-11-20T02:16:20;98128.53;;;-2.85;88.34
73016;BME280;61893;50.074;14.440;2022-11-20T02:18:48;98130.31;;;-2.70;88.62
73016;BME280;61893;50.074;14.440;2022-11-20T02:21:40;98114.22;;;-2.61;88.24
73016;BME280;61893;50.074;14.440;2022-11-20T02:24:15;98113.91;;;-2.55;88.07
73016;BME280;61893;50.074;14.440;2022-11-20T02:29:24;98119.75;;;-2.67;88.25
73016;BME280;61893;50.074;14.440;2022-11-20T02:31:51;98122.78;;;-2.75;88.09
73016;BME280;61893;50.074;14.440;2022-11-20T02:34:19;98120.06;;;-2.73;88.22
73016;BME280;61893;50.074;14.440;2022-11-20T02:36:45;98122.94;;;-2.62;87.75
73016;BME280;61893;50.074;14.440;2022-11-20T02:39:13;98120.59;;;-2.66;87.93
73016;BME280;61893;50.074;14.440;2022-11-20T02:41:42;98117.78;;;-2.79;87.69
73016;BME280;61893;50.074;14.440;2022-11-20T02:44:09;98123.41;;;-3.04;88.24
73016;BME280;61893;50.074;14.440;2022-11-20T02:46:34;98116.97;;;-2.97;89.12
73016;BME280;61893;50.074;14.440;2022-11-20T02:49:02;98119.00;;;-2.86;89.08
73016;BME280;61893;50.074;14.440;2022-11-20T02:51:28;98121.09;;;-2.93;88.11
73016;BME280;61893;50.074;14.440;2022-11-20T02:53:55;98117.19;;;-3.02;89.26
73016;BME280;61893;50.074;14.440;2022-11-20T02:56:20;98112.69;;;-3.15;88.80
73016;BME280;61893;50.074;14.440;2022-11-20T02:58:46;98112.16;;;-3.22;89.02
73016;BME280;61893;50.074;14.440;2022-11-20T03:01:12;98110.50;;;-3.23;89.59
73016;BME280;61893;50.074;14.440;2022-11-20T03:03:38;98106.88;;;-3.21;89.40
73016;BME280;61893;50.074;14.440;2022-11-20T03:06:04;98106.81;;;-3.36;90.13
73016;BME280;61893;50.074;14.440;2022-11-20T03:08:30;98103.44;;;-3.38;90.60
73016;BME280;61893;50.074;14.440;2022-11-20T03:10:56;98106.34;;;-3.27;90.31
73016;BME280;61893;50.074;14.440;2022-11-20T03:13:22;98095.31;;;-3.15;89.34
73016;BME280;61893;50.074;14.440;2022-11-20T03:15:50;98098.00;;;-3.17;89.08
73016;BME280;61893;50.074;14.440;2022-11-20T03:18:16;98091.03;;;-3.16;88.63
73016;BME280;61893;50.074;14.440;2022-11-20T03:20:41;98096.19;;;-3.14;88.87
73016;BME280;61893;50.074;14.440;2022-11-20T03:23:07;98099.53;;;-3.12;89.00
73016;BME280;61893;50.074;14.440;2022-11-20T03:25:33;98100.69;;;-3.18;89.06
73016;BME280;61893;50.074;14.440;2022-11-20T03:27:59;98105.19;;;-3.22;90.30
73016;BME280;61893;50.074;14.440;2022-11-20T03:30:25;98097.06;;;-3.15;89.67
73016;BME280;61893;50.074;14.440;2022-11-20T03:32:53;98103.41;;;-3.04;89.05
73016;BME280;61893;50.074;14.440;2022-11-20T03:35:19;98101.88;;;-2.90;89.01
73016;BME280;61893;50.074;14.440;2022-11-20T03:37:45;98099.88;;;-2.85;87.78
73016;BME280;61893;50.074;14.440;2022-11-20T03:40:11;98104.00;;;-2.81;87.57
73016;BME280;61893;50.074;14.440;2022-11-20T03:42:37;98101.88;;;-2.90;86.97
73016;BME280;61893;50.074;14.440;2022-11-20T03:45:14;98105.28;;;-2.73;87.31
73016;BME280;61893;50.074;14.440;2022-11-20T03:47:41;98104.78;;;-2.79;86.77
73016;BME280;61893;50.074;14.440;2022-11-20T03:50:08;98110.66;;;-2.76;87.11
73016;BME280;61893;50.074;14.440;2022-11-20T03:52:35;98112.75;;;-2.66;87.05
73016;BME280;61893;50.074;14.440;2022-11-20T03:55:01;98109.28;;;-2.50;86.55
73016;BME280;61893;50.074;14.440;2022-11-20T03:57:27;98111.03;;;-2.50;85.67
73016;BME280;61893;50.074;14.440;2022-11-20T03:59:53;98114.97;;;-2.59;85.89
73016;BME280;61893;50.074;14.440;2022-11-20T04:02:19;98122.88;;;-2.60;86.40
73016;BME280;61893;50.074;14.440;2022-11-20T04:04:45;98119.69;;;-2.50;86.72
73016;BME280;61893;50.074;14.440;2022-11-20T04:07:12;98122.47;;;-2.53;85.90
73016;BME280;61893;50.074;14.440;2022-11-20T04:09:38;98120.72;;;-2.85;87.89
73016;BME280;61893;50.074;14.440;2022-11-20T04:12:04;98124.00;;;-2.33;85.46
73016;BME280;61893;50.074;14.440;2022-11-20T04:14:29;98111.88;;;-2.50;84.83
73016;BME280;61893;50.074;14.440;2022-11-20T04:16:56;98118.69;;;-2.47;85.85
73016;BME280;61893;50.074;14.440;2022-11-20T04:19:21;98122.25;;;-2.32;85.83
73016;BME280;61893;50.074;14.440;2022-11-20T04:21:48;98123.19;;;-2.17;85.45
73016;BME280;61893;50.074;14.440;2022-11-20T04:24:13;98116.72;;;-2.26;85.32
73016;BME280;61893;50.074;14.440;2022-11-20T04:26:40;98118.97;;;-2.69;86.85
73016;BME280;61893;50.074;14.440;2022-11-20T04:29:06;98122.41;;;-2.51;86.63
73016;BME280;61893;50.074;14.440;2022-11-20T04:31:35;98120.13;;;-2.57;87.02
73016;BME280;61893;50.074;14.440;2022-11-20T04:34:06;98120.41;;;-2.46;87.15
73016;BME280;61893;50.074;14.440;2022-11-20T04:36:33;98121.56;;;-2.52;87.52
73016;BME280;61893;50.074;14.440;2022-11-20T04:39:03;98116.41;;;-2.86;88.22
73016;BME280;61893;50.074;14.440;2022-11-20T04:41:31;98104.97;;;-3.17;89.45
73016;BME280;61893;50.074;14.440;2022-11-20T04:44:00;98105.94;;;-2.85;88.66
73016;BME280;61893;50.074;14.440;2022-11-20T04:46:30;98100.03;;;-2.88;88.77
73016;BME280;61893;50.074;14.440;2022-11-20T04:48:56;98098.78;;;-2.81;88.20
73016;BME280;61893;50.074;14.440;2022-11-20T04:51:22;98095.25;;;-2.63;87.08
73016;BME280;61893;50.074;14.440;2022-11-20T04:53:48;98095.25;;;-2.63;87.08
73016;BME280;61893;50.074;14.440;2022-11-20T04:56:14;98087.31;;;-2.77;87.53
73016;BME280;61893;50.074;14.440;2022-11-20T04:58:39;98089.44;;;-2.68;87.14
73016;BME280;61893;50.074;14.440;2022-11-20T05:01:14;98090.16;;;-2.82;87.44
73016;BME280;61893;50.074;14.440;2022-11-20T05:03:41;98080.69;;;-3.00;88.03
73016;BME280;61893;50.074;14.440;2022-11-20T05:06:08;98079.19;;;-3.39;89.08
73016;BME280;61893;50.074;14.440;2022-11-20T05:08:34;98069.53;;;-3.20;88.98
73016;BME280;61893;50.074;14.440;2022-11-20T05:11:09;98077.06;;;-3.31;89.44
73016;BME280;61893;50.074;14.440;2022-11-20T05:13:35;98076.22;;;-3.31;89.17
73016;BME280;61893;50.074;14.440;2022-11-20T05:16:12;98070.28;;;-3.00;87.72
73016;BME280;61893;50.074;14.440;2022-11-20T05:18:38;98080.97;;;-3.40;89.71
73016;BME280;61893;50.074;14.440;2022-11-20T05:21:04;98085.47;;;-3.43;90.08
73016;BME280;61893;50.074;14.440;2022-11-20T05:23:31;98090.75;;;-3.27;89.49
73016;BME280;61893;50.074;14.440;2022-11-20T05:25:58;98085.75;;;-2.97;88.06
73016;BME280;61893;50.074;14.440;2022-11-20T05:28:24;98093.28;;;-3.26;88.06
73016;BME280;61893;50.074;14.440;2022-11-20T05:30:50;98080.72;;;-3.18;88.50
73016;BME280;61893;50.074;14.440;2022-11-20T05:33:16;98083.53;;;-3.05;88.07
73016;BME280;61893;50.074;14.440;2022-11-20T05:35:43;98084.81;;;-2.96;87.81
73016;BME280;61893;50.074;14.440;2022-11-20T05:38:09;98084.31;;;-3.03;87.16
73016;BME280;61893;50.074;14.440;2022-11-20T05:40:35;98084.50;;;-2.90;87.88
73016;BME280;61893;50.074;14.440;2022-11-20T05:43:01;98080.72;;;-2.84;87.62
73016;BME280;61893;50.074;14.440;2022-11-20T05:45:27;98087.22;;;-3.09;87.96
73016;BME280;61893;50.074;14.440;2022-11-20T05:47:53;98083.00;;;-3.11;88.61
73016;BME280;61893;50.074;14.440;2022-11-20T05:50:19;98085.69;;;-3.13;88.06
73016;BME280;61893;50.074;14.440;2022-11-20T05:52:45;98082.63;;;-3.21;88.55
73016;BME280;61893;50.074;14.440;2022-11-20T05:55:11;98081.25;;;-3.28;89.23
73016;BME280;61893;50.074;14.440;2022-11-20T05:57:36;98090.22;;;-3.34;89.87
73016;BME280;61893;50.074;14.440;2022-11-20T06:00:03;98090.97;;;-3.14;88.12
73016;BME280;61893;50.074;14.440;2022-11-20T06:02:29;98096.94;;;-3.30;89.03
73016;BME280;61893;50.074;14.440;2022-11-20T06:04:58;98092.78;;;-2.99;88.03
73016;BME280;61893;50.074;14.440;2022-11-20T06:07:25;98089.25;;;-2.98;87.51
73016;BME280;61893;50.074;14.440;2022-11-20T06:09:52;98084.50;;;-2.90;88.10
73016;BME280;61893;50.074;14.440;2022-11-20T06:12:18;98080.16;;;-3.07;88.07
73016;BME280;61893;50.074;14.440;2022-11-20T06:14:44;98079.25;;;-3.41;89.30
73016;BME280;61893;50.074;14.440;2022-11-20T06:17:10;98073.81;;;-3.19;89.09
73016;BME280;61893;50.074;14.440;2022-11-20T06:19:36;98073.66;;;-3.15;88.15
73016;BME280;61893;50.074;14.440;2022-11-20T06:22:02;98070.00;;;-3.11;87.77
73016;BME280;61893;50.074;14.440;2022-11-20T06:24:28;98066.41;;;-3.26;88.16
73016;BME280;61893;50.074;14.440;2022-11-20T06:26:54;98061.03;;;-3.06;88.16
73016;BME280;61893;50.074;14.440;2022-11-20T06:29:20;98064.50;;;-3.40;88.40
73016;BME280;61893;50.074;14.440;2022-11-20T06:31:46;98066.56;;;-3.47;89.42
73016;BME280;61893;50.074;14.440;2022-11-20T06:34:12;98071.41;;;-3.56;90.39
73016;BME280;61893;50.074;14.440;2022-11-20T06:36:42;98066.25;;;-3.75;90.79
73016;BME280;61893;50.074;14.440;2022-11-20T06:39:09;98077.75;;;-3.62;90.20
73016;BME280;61893;50.074;14.440;2022-11-20T06:41:35;98077.59;;;-3.59;90.59
73016;BME280;61893;50.074;14.440;2022-11-20T06:44:01;98076.22;;;-3.66;90.67
73016;BME280;61893;50.074;14.440;2022-11-20T06:46:26;98074.63;;;-3.51;89.99
73016;BME280;61893;50.074;14.440;2022-11-20T06:48:55;98079.34;;;-3.59;90.36
73016;BME280;61893;50.074;14.440;2022-11-20T06:51:21;98073.06;;;-3.55;90.64
73016;BME280;61893;50.074;14.440;2022-11-20T06:53:48;98073.31;;;-3.43;89.53
73016;BME280;61893;50.074;14.440;2022-11-20T06:56:14;98082.31;;;-3.32;89.12
73016;BME280;61893;50.074;14.440;2022-11-20T06:58:40;98079.41;;;-3.44;89.20
73016;BME280;61893;50.074;14.440;2022-11-20T07:01:08;98062.47;;;-3.00;87.61
73016;BME280;61893;50.074;14.440;2022-11-20T07:03:35;98054.84;;;-3.21;88.13
73016;BME280;61893;50.074;14.440;2022-11-20T07:06:01;98062.81;;;-3.24;87.88
73016;BME280;61893;50.074;14.440;2022-11-20T07:08:28;98031.88;;;-2.79;87.40
73016;BME280;61893;50.074;14.440;2022-11-20T07:11:03;98033.03;;;-2.69;85.74
73016;BME280;61893;50.074;14.440;2022-11-20T07:13:29;98049.03;;;-2.92;86.73
73016;BME280;61893;50.074;14.440;2022-11-20T07:15:59;98053.78;;;-3.17;88.78
73016;BME280;61893;50.074;14.440;2022-11-20T07:18:26;98061.91;;;-2.89;86.78
73016;BME280;61893;50.074;14.440;2022-11-20T07:20:51;98065.69;;;-3.12;87.41
73016;BME280;61893;50.074;14.440;2022-11-20T07:23:17;98062.50;;;-3.18;88.20
73016;BME280;61893;50.074;14.440;2022-11-20T07:25:44;98057.00;;;-3.29;88.85
73016;BME280;61893;50.074;14.440;2022-11-20T07:28:10;98061.88;;;-3.05;88.08
73016;BME280;61893;50.074;14.440;2022-11-20T07:30:36;98075.06;;;-2.92;87.79
73016;BME280;61893;50.074;14.440;2022-11-20T07:33:02;98069.91;;;-3.10;88.47
73016;BME280;61893;50.074;14.440;2022-11-20T07:35:28;98067.75;;;-2.68;87.48
73016;BME280;61893;50.074;14.440;2022-11-20T07:37:54;98073.69;;;-2.66;86.99
73016;BME280;61893;50.074;14.440;2022-11-20T07:40:20;98081.09;;;-2.75;87.50
73016;BME280;61893;50.074;14.440;2022-11-20T07:42:54;98073.97;;;-2.71;86.82
73016;BME280;61893;50.074;14.440;2022-11-20T07:45:22;98068.38;;;-2.47;86.13
73016;BME280;61893;50.074;14.440;2022-11-20T07:48:03;98056.53;;;-2.37;86.03
73016;BME280;61893;50.074;14.440;2022-11-20T07:50:29;98053.91;;;-2.06;84.82
73016;BME280;61893;50.074;14.440;2022-11-20T07:53:03;98045.81;;;-1.85;83.20
73016;BME280;61893;50.074;14.440;2022-11-20T07:55:29;98054.81;;;-1.61;82.43
73016;BME280;61893;50.074;14.440;2022-11-20T07:57:56;98062.59;;;-1.75;82.92
73016;BME280;61893;50.074;14.440;2022-11-20T08:00:22;98057.44;;;-2.07;83.88
73016;BME280;61893;50.074;14.440;2022-11-20T08:02:49;98062.88;;;-1.79;83.61
73016;BME280;61893;50.074;14.440;2022-11-20T08:05:15;98059.63;;;-1.99;83.92
73016;BME280;61893;50.074;14.440;2022-11-20T08:07:42;98057.44;;;-1.91;84.35
73016;BME280;61893;50.074;14.440;2022-11-20T08:10:11;98058.00;;;-1.86;83.56
73016;BME280;61893;50.074;14.440;2022-11-20T08:12:48;98053.16;;;-1.62;82.44
73016;BME280;61893;50.074;14.440;2022-11-20T08:15:34;98046.09;;;-1.60;81.57
73016;BME280;61893;50.074;14.440;2022-11-20T08:18:08;98049.66;;;-1.76;81.57
73016;BME280;61893;50.074;14.440;2022-11-20T08:20:35;98049.94;;;-2.13;83.98
73016;BME280;61893;50.074;14.440;2022-11-20T08:23:03;98055.19;;;-2.29;84.99
73016;BME280;61893;50.074;14.440;2022-11-20T08:25:39;98050.88;;;-2.30;85.25
73016;BME280;61893;50.074;14.440;2022-11-20T08:28:07;98050.78;;;-2.12;84.63
73016;BME280;61893;50.074;14.440;2022-11-20T08:30:35;98045.09;;;-2.03;84.07
73016;BME280;61893;50.074;14.440;2022-11-20T08:33:08;98048.94;;;-2.10;83.66
73016;BME280;61893;50.074;14.440;2022-11-20T08:35:35;98048.53;;;-2.18;84.11
73016;BME280;61893;50.074;14.440;2022-11-20T08:38:03;98050.72;;;-2.27;84.50
73016;BME280;61893;50.074;14.440;2022-11-20T08:40:29;98048.47;;;-2.17;83.83
73016;BME280;61893;50.074;14.440;2022-11-20T08:42:55;98039.41;;;-1.95;83.88
73016;BME280;61893;50.074;14.440;2022-11-20T08:45:21;98032.22;;;-2.22;83.58
73016;BME280;61893;50.074;14.440;2022-11-20T08:47:46;98035.44;;;-2.48;84.83
73016;BME280;61893;50.074;14.440;2022-11-20T08:50:14;98031.94;;;-1.86;83.61
73016;BME280;61893;50.074;14.440;2022-11-20T08:52:40;98028.38;;;-1.85;82.19
73016;BME280;61893;50.074;14.440;2022-11-20T08:55:07;98022.88;;;-1.94;83.51
73016;BME280;61893;50.074;14.440;2022-11-20T08:57:34;98022.94;;;-1.96;83.54
73016;BME280;61893;50.074;14.440;2022-11-20T09:00:00;98006.03;;;-1.89;82.66
73016;BME280;61893;50.074;14.440;2022-11-20T09:02:26;98014.28;;;-1.96;82.75
73016;BME280;61893;50.074;14.440;2022-11-20T09:04:53;98004.25;;;-1.88;83.39
73016;BME280;61893;50.074;14.440;2022-11-20T09:07:19;98013.16;;;-1.76;83.19
73016;BME280;61893;50.074;14.440;2022-11-20T09:09:45;98023.84;;;-1.51;81.94
73016;BME280;61893;50.074;14.440;2022-11-20T09:12:11;98036.88;;;-1.81;82.77
73016;BME280;61893;50.074;14.440;2022-11-20T09:14:37;98030.16;;;-1.55;82.21
73016;BME280;61893;50.074;14.440;2022-11-20T09:17:02;98021.81;;;-1.46;81.88
73016;BME280;61893;50.074;14.440;2022-11-20T09:19:28;98025.78;;;-1.85;83.07
73016;BME280;61893;50.074;14.440;2022-11-20T09:21:54;98031.16;;;-1.58;82.58
73016;BME280;61893;50.074;14.440;2022-11-20T09:24:20;98032.78;;;-1.41;82.79
73016;BME280;61893;50.074;14.440;2022-11-20T09:26:46;98021.06;;;-1.48;82.37
73016;BME280;61893;50.074;14.440;2022-11-20T09:29:15;98025.34;;;-1.32;82.27
73016;BME280;61893;50.074;14.440;2022-11-20T09:31:41;98038.09;;;-1.72;83.24
73016;BME280;61893;50.074;14.440;2022-11-20T09:34:07;98030.72;;;-1.50;83.31
73016;BME280;61893;50.074;14.440;2022-11-20T09:36:32;98028.03;;;-1.48;83.23
73016;BME280;61893;50.074;14.440;2022-11-20T09:38:58;98024.19;;;-1.57;83.50
73016;BME280;61893;50.074;14.440;2022-11-20T09:42:04;98017.81;;;-1.37;82.95
73016;BME280;61893;50.074;14.440;2022-11-20T09:45:02;98011.09;;;-1.27;82.78
73016;BME280;61893;50.074;14.440;2022-11-20T09:47:43;98008.19;;;-1.51;83.82
73016;BME280;61893;50.074;14.440;2022-11-20T09:53:13;98008.88;;;-1.63;85.87
73016;BME280;61893;50.074;14.440;2022-11-20T09:55:56;97998.78;;;-1.53;86.59
73016;BME280;61893;50.074;14.440;2022-11-20T09:58:44;98000.34;;;-1.51;86.53
73016;BME280;61893;50.074;14.440;2022-11-20T10:01:16;97996.78;;;-1.64;86.08
73016;BME280;61893;50.074;14.440;2022-11-20T10:04:27;97986.94;;;-1.45;87.65
73016;BME280;61893;50.074;14.440;2022-11-20T10:07:16;97988.63;;;-1.44;86.88
73016;BME280;61893;50.074;14.440;2022-11-20T10:10:03;98001.97;;;-1.34;88.18
73016;BME280;61893;50.074;14.440;2022-11-20T10:26:46;97954.84;;;-0.75;85.36
73016;BME280;61893;50.074;14.440;2022-11-20T10:29:27;97975.41;;;-1.26;86.77
73016;BME280;61893;50.074;14.440;2022-11-20T10:32:00;97990.84;;;-1.38;88.84
73016;BME280;61893;50.074;14.440;2022-11-20T10:34:35;97994.59;;;-1.42;89.19
73016;BME280;61893;50.074;14.440;2022-11-20T10:37:16;97956.22;;;-1.25;88.11
73016;BME280;61893;50.074;14.440;2022-11-20T10:42:26;97951.38;;;-0.61;86.25
73016;BME280;61893;50.074;14.440;2022-11-20T10:45:01;97969.06;;;-1.37;89.45
73016;BME280;61893;50.074;14.440;2022-11-20T10:47:38;97966.66;;;-1.11;88.59
73016;BME280;61893;50.074;14.440;2022-11-20T10:50:08;97965.06;;;-1.14;87.63
73016;BME280;61893;50.074;14.440;2022-11-20T10:58:14;97957.97;;;-0.97;88.02
73016;BME280;61893;50.074;14.440;2022-11-20T11:00:42;97950.50;;;-0.89;87.62
73016;BME280;61893;50.074;14.440;2022-11-20T11:03:23;97951.88;;;-0.83;86.38
73016;BME280;61893;50.074;14.440;2022-11-20T11:06:30;97944.25;;;-0.86;86.93
73016;BME280;61893;50.074;14.440;2022-11-20T11:09:01;97932.88;;;-0.85;87.08
73016;BME280;61893;50.074;14.440;2022-11-20T11:11:32;97927.00;;;-0.48;86.26
73016;BME280;61893;50.074;14.440;2022-11-20T11:14:06;97922.44;;;-0.58;87.01
73016;BME280;61893;50.074;14.440;2022-11-20T11:16:32;97923.94;;;-0.14;84.19
73016;BME280;61893;50.074;14.440;2022-11-20T11:19:12;97912.22;;;-0.21;85.48
73016;BME280;61893;50.074;14.440;2022-11-20T11:21:46;97919.38;;;-0.38;85.12
73016;BME280;61893;50.074;14.440;2022-11-20T11:24:30;97918.59;;;-0.53;86.05
73016;BME280;61893;50.074;14.440;2022-11-20T11:27:00;97915.59;;;-0.74;85.87
73016;BME280;61893;50.074;14.440;2022-11-20T11:29:33;97917.88;;;-0.69;87.42
73016;BME280;61893;50.074;14.440;2022-11-20T11:32:28;97919.81;;;-0.58;86.72
73016;BME280;61893;50.074;14.440;2022-11-20T11:35:05;97923.69;;;0.03;84.71
73016;BME280;61893;50.074;14.440;2022-11-20T11:37:36;97916.84;;;-0.12;85.45
73016;BME280;61893;50.074;14.440;2022-11-20T11:40:05;97913.31;;;-0.11;84.19
73016;BME280;61893;50.074;14.440;2022-11-20T11:42:33;97913.25;;;0.16;84.27
73016;BME280;61893;50.074;14.440;2022-11-20T11:45:02;97911.47;;;0.04;83.12
73016;BME280;61893;50.074;14.440;2022-11-20T11:47:45;97912.44;;;-0.12;85.04
73016;BME280;61893;50.074;14.440;2022-11-20T11:50:28;97912.69;;;-0.02;85.07
73016;BME280;61893;50.074;14.440;2022-11-20T11:53:18;97922.75;;;0.17;84.56
73016;BME280;61893;50.074;14.440;2022-11-20T11:56:03;97913.25;;;0.03;84.65
73016;BME280;61893;50.074;14.440;2022-11-20T11:58:47;97904.97;;;0.22;84.33
73016;BME280;61893;50.074;14.440;2022-11-20T12:01:42;97905.72;;;0.24;83.81
73016;BME280;61893;50.074;14.440;2022-11-20T12:06:44;97909.00;;;0.66;83.61
73016;BME280;61893;50.074;14.440;2022-11-20T12:09:12;97916.69;;;0.93;82.03
73016;BME280;61893;50.074;14.440;2022-11-20T12:14:40;97903.69;;;1.04;81.64
73016;BME280;61893;50.074;14.440;2022-11-20T12:17:11;97898.63;;;1.14;81.01
73016;BME280;61893;50.074;14.440;2022-11-20T12:19:37;97888.50;;;1.33;80.28
73016;BME280;61893;50.074;14.440;2022-11-20T12:27:54;97883.94;;;1.48;80.23
73016;BME280;61893;50.074;14.440;2022-11-20T12:30:23;97871.66;;;1.73;79.67
73016;BME280;61893;50.074;14.440;2022-11-20T12:33:51;97852.09;;;1.77;78.72
73016;BME280;61893;50.074;14.440;2022-11-20T12:36:19;97855.53;;;1.42;80.32
73016;BME280;61893;50.074;14.440;2022-11-20T12:39:29;97871.19;;;0.57;83.36
73016;BME280;61893;50.074;14.440;2022-11-20T12:45:19;97870.44;;;0.55;85.23
73016;BME280;61893;50.074;14.440;2022-11-20T12:56:21;97845.97;;;0.18;86.59
73016;BME280;61893;50.074;14.440;2022-11-20T13:01:56;97833.81;;;0.55;85.25
73016;BME280;61893;50.074;14.440;2022-11-20T13:07:02;97842.41;;;0.32;86.50
73016;BME280;61893;50.074;14.440;2022-11-20T13:09:29;97831.31;;;0.41;86.11
73016;BME280;61893;50.074;14.440;2022-11-20T13:15:26;97848.25;;;0.22;87.17
73016;BME280;61893;50.074;14.440;2022-11-20T13:18:34;97842.19;;;0.60;85.67
73016;BME280;61893;50.074;14.440;2022-11-20T13:21:22;97841.84;;;0.78;84.50
73016;BME280;61893;50.074;14.440;2022-11-20T13:24:07;97837.88;;;0.72;85.06
73016;BME280;61893;50.074;14.440;2022-11-20T13:30:00;97826.66;;;0.70;84.07
73016;BME280;61893;50.074;14.440;2022-11-20T13:36:01;97811.56;;;0.74;85.14
73016;BME280;61893;50.074;14.440;2022-11-20T13:38:39;97796.28;;;0.67;85.18
73016;BME280;61893;50.074;14.440;2022-11-20T13:41:09;97798.69;;;0.71;85.23
73016;BME280;61893;50.074;14.440;2022-11-20T13:44:04;97816.41;;;0.54;85.25
73016;BME280;61893;50.074;14.440;2022-11-20T13:46:53;97811.47;;;0.62;85.85
73016;BME280;61893;50.074;14.440;2022-11-20T13:49:27;97816.91;;;0.72;85.21
73016;BME280;61893;50.074;14.440;2022-11-20T14:00:28;97819.78;;;0.43;87.37
73016;BME280;61893;50.074;14.440;2022-11-20T14:03:19;97806.69;;;0.56;86.92
73016;BME280;61893;50.074;14.440;2022-11-20T14:05:51;97800.63;;;0.80;86.21
73016;BME280;61893;50.074;14.440;2022-11-20T14:08:25;97808.94;;;0.74;85.52
73016;BME280;61893;50.074;14.440;2022-11-20T14:11:05;97795.94;;;0.35;87.75
73016;BME280;61893;50.074;14.440;2022-11-20T14:16:49;97788.25;;;0.58;87.34
73016;BME280;61893;50.074;14.440;2022-11-20T14:21:53;97798.84;;;0.43;88.05
73016;BME280;61893;50.074;14.440;2022-11-20T14:24:24;97816.22;;;0.44;88.25
73016;BME280;61893;50.074;14.440;2022-11-20T14:27:19;97815.28;;;0.45;89.06
73016;BME280;61893;50.074;14.440;2022-11-20T14:30:03;97808.41;;;0.68;87.75